Time;durP1;ratioP1;P1;durP2;ratioP2;P2;SDS_P1;SDS_P2;PMS_P1;PMS_P2;Temp;Humidity;BMP_temperature;BMP_pressure;BME280_temperature;BME280_humidity;BME280_pressure;Samples;Min_cycle;Max_cycle;Signal;HPM_P1;HPM_P2
2021/07/01 00:00:17;;;;;;;98.75;76.53;;;;;;;;;;4269448;33;20338;-57
2021/07/01 00:02:43;;;;;;;94.22;74.90;;;;;;;;;;4258529;33;20228;-56
2021/07/01 00:05:11;;;;;;;74.22;59.92;;;;;;;;;;4258523;33;20686;-57
2021/07/01 00:07:38;;;;;;;59.50;41.42;;;;;;;;;;4258541;33;20607;-57
2021/07/01 00:10:13;;;;;;;38.28;28.38;;;;;;;;;;4258563;33;20562;-57
2021/07/01 00:12:38;;;;;;;40.10;30.50;;;;;;;;;;4258192;33;20656;-55
2021/07/01 00:15:13;;;;;;;33.97;24.50;;;;;;;;;;4268886;33;20342;-55
2021/07/01 00:17:38;;;;;;;19.95;15.40;;;;;;;;;;4258345;33;20299;-56
2021/07/01 00:20:04;;;;;;;17.60;10.10;;;;;;;;;;4263987;33;20376;-57
2021/07/01 00:22:30;;;;;;;17.02;6.95;;;;;;;;;;4272539;33;20661;-56
2021/07/01 00:24:55;;;;;;;16.62;5.72;;;;;;;;;;4272257;33;20314;-56
2021/07/01 00:27:21;;;;;;;14.65;5.00;;;;;;;;;;4283630;33;20244;-56
2021/07/01 00:29:46;;;;;;;15.40;4.90;;;;;;;;;;4271886;33;20354;-56
2021/07/01 00:32:12;;;;;;;20.52;4.95;;;;;;;;;;4262211;33;20681;-55
2021/07/01 00:34:37;;;;;;;10.90;4.28;;;;;;;;;;4258149;33;20209;-56
2021/07/01 00:37:03;;;;;;;10.10;5.15;;;;;;;;;;4258307;33;20236;-56
2021/07/01 00:39:29;;;;;;;10.70;4.40;;;;;;;;;;4258070;33;20217;-56
2021/07/01 00:41:54;;;;;;;9.93;3.90;;;;;;;;;;4258307;33;20228;-56
2021/07/01 00:44:20;;;;;;;15.32;4.82;;;;;;;;;;4271655;33;20228;-56
2021/07/01 00:46:45;;;;;;;9.52;4.07;;;;;;;;;;4272076;33;20306;-56
2021/07/01 00:49:10;;;;;;;20.60;4.47;;;;;;;;;;4267768;33;20251;-56
2021/07/01 00:51:36;;;;;;;10.65;4.20;;;;;;;;;;4258096;33;20339;-56
2021/07/01 00:54:02;;;;;;;11.10;3.95;;;;;;;;;;4264689;33;20595;-56
2021/07/01 00:56:28;;;;;;;13.15;5.47;;;;;;;;;;4272136;33;20534;-57
2021/07/01 00:58:55;;;;;;;13.38;4.43;;;;;;;;;;4271435;33;20209;-56
2021/07/01 01:01:22;;;;;;;11.75;4.12;;;;;;;;;;4272112;33;20637;-56
2021/07/01 01:03:47;;;;;;;12.48;7.55;;;;;;;;;;4271494;33;20256;-56
2021/07/01 01:06:14;;;;;;;66.55;52.00;;;;;;;;;;4271754;33;20760;-56
2021/07/01 01:08:40;;;;;;;95.70;72.57;;;;;;;;;;4258767;33;20236;-56
2021/07/01 01:11:05;;;;;;;55.10;44.45;;;;;;;;;;4271766;33;20283;-56
2021/07/01 01:13:31;;;;;;;39.15;30.20;;;;;;;;;;4271814;33;20311;-56
2021/07/01 01:15:59;;;;;;;38.30;28.70;;;;;;;;;;4282148;33;20341;-56
2021/07/01 01:18:25;;;;;;;29.10;18.50;;;;;;;;;;4271840;33;20291;-56
2021/07/01 01:20:53;;;;;;;16.25;10.88;;;;;;;;;;4258709;33;20336;-56
2021/07/01 01:23:19;;;;;;;15.30;6.30;;;;;;;;;;4271577;33;20296;-56
2021/07/01 01:25:50;;;;;;;9.15;5.05;;;;;;;;;;4271870;33;20268;-56
2021/07/01 01:28:17;;;;;;;11.12;4.15;;;;;;;;;;4271670;33;20630;-56
2021/07/01 01:30:43;;;;;;;14.85;5.68;;;;;;;;;;4269972;33;20295;-56
2021/07/01 01:33:09;;;;;;;14.77;4.80;;;;;;;;;;4257535;33;20225;-56
2021/07/01 01:35:37;;;;;;;9.88;4.32;;;;;;;;;;4257390;33;20641;-56
2021/07/01 01:38:05;;;;;;;13.32;4.60;;;;;;;;;;4257618;33;20322;-56
2021/07/01 01:40:31;;;;;;;14.20;4.82;;;;;;;;;;4257635;33;20200;-57
2021/07/01 01:42:56;;;;;;;8.10;4.93;;;;;;;;;;4262651;33;20266;-56
2021/07/01 01:45:22;;;;;;;16.37;5.45;;;;;;;;;;4282438;33;20283;-55
2021/07/01 01:47:51;;;;;;;11.40;5.20;;;;;;;;;;4271192;33;20245;-55
2021/07/01 01:50:18;;;;;;;10.93;4.10;;;;;;;;;;4271005;33;20551;-55
2021/07/01 01:52:44;;;;;;;17.65;4.85;;;;;;;;;;4257056;33;20224;-55
2021/07/01 01:55:13;;;;;;;12.37;5.07;;;;;;;;;;4256553;33;20330;-56
2021/07/01 01:57:44;;;;;;;14.30;4.95;;;;;;;;;;4257054;33;20243;-56
2021/07/01 02:00:11;;;;;;;6.32;4.40;;;;;;;;;;4267708;33;20343;-56
2021/07/01 02:02:38;;;;;;;12.10;4.85;;;;;;;;;;4256978;33;20229;-56
2021/07/01 02:05:05;;;;;;;18.80;4.87;;;;;;;;;;4268009;33;20899;-56
2021/07/01 02:07:30;;;;;;;18.70;9.85;;;;;;;;;;4257287;33;20217;-56
2021/07/01 02:09:57;;;;;;;29.05;11.45;;;;;;;;;;4256987;33;20310;-56
2021/07/01 02:12:23;;;;;;;22.00;10.20;;;;;;;;;;4267233;33;20319;-55
2021/07/01 02:14:48;;;;;;;23.42;9.88;;;;;;;;;;4256682;33;20299;-56
2021/07/01 02:17:14;;;;;;;17.77;6.50;;;;;;;;;;4257214;33;20308;-56
2021/07/01 02:19:39;;;;;;;15.52;6.85;;;;;;;;;;4256850;33;20735;-56
2021/07/01 02:22:05;;;;;;;14.57;6.45;;;;;;;;;;4257121;33;20631;-56
2021/07/01 02:24:30;;;;;;;13.95;6.62;;;;;;;;;;4257250;33;20276;-55
2021/07/01 02:26:56;;;;;;;15.00;5.87;;;;;;;;;;4257378;33;20263;-55
2021/07/01 02:29:21;;;;;;;14.13;5.85;;;;;;;;;;4256811;33;20209;-56
2021/07/01 02:31:47;;;;;;;10.57;5.87;;;;;;;;;;4259302;33;20793;-55
2021/07/01 02:34:12;;;;;;;8.57;4.37;;;;;;;;;;4257652;33;20292;-56
2021/07/01 02:36:38;;;;;;;9.10;4.37;;;;;;;;;;4259471;33;20276;-56
2021/07/01 02:39:07;;;;;;;19.17;6.35;;;;;;;;;;4258455;33;20765;-56
2021/07/01 02:41:33;;;;;;;12.77;5.55;;;;;;;;;;4259497;33;20751;-55
2021/07/01 02:43:58;;;;;;;11.30;5.03;;;;;;;;;;4270921;33;20611;-57
2021/07/01 02:46:24;;;;;;;11.12;5.15;;;;;;;;;;4284467;33;20276;-55
2021/07/01 02:48:49;;;;;;;16.23;6.55;;;;;;;;;;4270713;33;20208;-57
2021/07/01 02:51:15;;;;;;;19.75;5.80;;;;;;;;;;4259920;33;20292;-56
2021/07/01 02:53:40;;;;;;;11.65;5.35;;;;;;;;;;4263986;33;20244;-56
2021/07/01 02:56:06;;;;;;;12.35;5.22;;;;;;;;;;4273719;33;20474;-56
2021/07/01 02:58:31;;;;;;;10.98;5.62;;;;;;;;;;4273673;33;20236;-55
2021/07/01 03:00:57;;;;;;;17.83;6.30;;;;;;;;;;4273382;33;20310;-56
2021/07/01 03:03:23;;;;;;;16.27;7.35;;;;;;;;;;4273435;33;20244;-55
2021/07/01 03:05:48;;;;;;;16.98;6.25;;;;;;;;;;4273586;33;20280;-56
2021/07/01 03:08:14;;;;;;;14.45;5.40;;;;;;;;;;4270644;33;20224;-55
2021/07/01 03:10:39;;;;;;;17.60;5.18;;;;;;;;;;4259043;33;20294;-55
2021/07/01 03:13:04;;;;;;;10.27;5.78;;;;;;;;;;4259211;33;20622;-56
2021/07/01 03:15:30;;;;;;;16.52;6.22;;;;;;;;;;4259750;33;20682;-56
2021/07/01 03:17:55;;;;;;;16.92;5.68;;;;;;;;;;4259222;33;20236;-55
2021/07/01 03:20:21;;;;;;;12.75;4.90;;;;;;;;;;4259195;33;20458;-57
2021/07/01 03:22:46;;;;;;;20.73;5.55;;;;;;;;;;4258668;33;20234;-56
2021/07/01 03:25:12;;;;;;;12.13;4.05;;;;;;;;;;4259030;33;20645;-56
2021/07/01 03:27:37;;;;;;;12.88;5.70;;;;;;;;;;4258883;33;20658;-56
2021/07/01 03:30:04;;;;;;;10.77;4.22;;;;;;;;;;4259115;33;20276;-55
2021/07/01 03:32:30;;;;;;;16.12;5.95;;;;;;;;;;4261516;33;20232;-56
2021/07/01 03:34:55;;;;;;;16.65;5.72;;;;;;;;;;4258938;33;20284;-57
2021/07/01 03:37:21;;;;;;;11.35;5.25;;;;;;;;;;4259061;33;20687;-55
2021/07/01 03:39:47;;;;;;;14.73;5.20;;;;;;;;;;4258672;33;20351;-56
2021/07/01 03:42:12;;;;;;;13.10;6.25;;;;;;;;;;4258811;33;20327;-55
2021/07/01 03:44:38;;;;;;;14.35;4.75;;;;;;;;;;4269101;33;20649;-56
2021/07/01 03:47:06;;;;;;;14.65;5.20;;;;;;;;;;4272402;33;20224;-55
2021/07/01 03:49:32;;;;;;;15.32;6.57;;;;;;;;;;4266216;33;20247;-55
2021/07/01 03:51:57;;;;;;;19.35;7.10;;;;;;;;;;4245750;33;20260;-55
2021/07/01 03:54:23;;;;;;;18.90;9.10;;;;;;;;;;4258235;33;20240;-56
2021/07/01 03:56:48;;;;;;;14.55;6.40;;;;;;;;;;4258790;33;20240;-56
2021/07/01 03:59:15;;;;;;;9.85;5.60;;;;;;;;;;4258519;33;20613;-55
2021/07/01 04:01:41;;;;;;;12.52;5.57;;;;;;;;;;4258733;33;20306;-55
2021/07/01 04:04:07;;;;;;;12.48;5.85;;;;;;;;;;4258340;33;20205;-56
2021/07/01 04:06:33;;;;;;;18.55;5.57;;;;;;;;;;4258703;33;20414;-56
2021/07/01 04:08:59;;;;;;;10.90;5.22;;;;;;;;;;4258262;33;20321;-57
2021/07/01 04:11:25;;;;;;;14.05;5.35;;;;;;;;;;4258382;33;20296;-57
2021/07/01 04:13:51;;;;;;;13.98;5.47;;;;;;;;;;4258055;33;20714;-56
2021/07/01 04:16:16;;;;;;;15.30;5.62;;;;;;;;;;4258238;33;20287;-55
2021/07/01 04:18:42;;;;;;;12.93;5.57;;;;;;;;;;4258050;33;20316;-56
2021/07/01 04:21:07;;;;;;;11.85;6.10;;;;;;;;;;4258216;33;20272;-56
2021/07/01 04:23:33;;;;;;;16.27;5.80;;;;;;;;;;4258069;33;20232;-56
2021/07/01 04:25:58;;;;;;;15.07;6.30;;;;;;;;;;4258206;33;20275;-56
2021/07/01 04:28:24;;;;;;;14.50;6.50;;;;;;;;;;4258289;33;20232;-55
2021/07/01 04:30:49;;;;;;;10.38;5.40;;;;;;;;;;4262615;33;20657;-56
2021/07/01 04:33:15;;;;;;;17.98;5.68;;;;;;;;;;4272364;33;20237;-56
2021/07/01 04:35:47;;;;;;;11.57;6.60;;;;;;;;;;4271903;33;20329;-56
2021/07/01 04:38:17;;;;;;;24.87;7.57;;;;;;;;;;4272205;33;20322;-56
2021/07/01 04:40:43;;;;;;;16.12;5.78;;;;;;;;;;4271904;33;20304;-55
2021/07/01 04:43:09;;;;;;;11.20;5.75;;;;;;;;;;4271948;33;20232;-56
2021/07/01 04:45:35;;;;;;;18.35;5.65;;;;;;;;;;4272147;33;20266;-56
2021/07/01 04:48:01;;;;;;;16.65;6.18;;;;;;;;;;4271785;33;20228;-55
2021/07/01 04:50:27;;;;;;;13.62;7.22;;;;;;;;;;4259662;33;20736;-56
2021/07/01 04:52:53;;;;;;;20.10;6.37;;;;;;;;;;4244364;33;20323;-56
2021/07/01 04:55:18;;;;;;;23.75;6.68;;;;;;;;;;4271869;33;20271;-56
2021/07/01 04:57:44;;;;;;;20.50;5.25;;;;;;;;;;4257809;33;20292;-56
2021/07/01 05:00:10;;;;;;;13.52;6.65;;;;;;;;;;4271730;33;20703;-56
2021/07/01 05:02:35;;;;;;;15.07;6.50;;;;;;;;;;4257796;33;20578;-56
2021/07/01 05:05:01;;;;;;;9.93;5.68;;;;;;;;;;4257901;33;20302;-56
2021/07/01 05:07:26;;;;;;;16.23;6.43;;;;;;;;;;4257372;33;20224;-55
2021/07/01 05:09:51;;;;;;;15.55;5.70;;;;;;;;;;4256883;33;20366;-55
2021/07/01 05:12:17;;;;;;;10.75;5.28;;;;;;;;;;4257298;33;20232;-55
2021/07/01 05:14:42;;;;;;;17.58;6.07;;;;;;;;;;4257140;33;20307;-56
2021/07/01 05:17:08;;;;;;;15.25;5.40;;;;;;;;;;4256502;33;20263;-56
2021/07/01 05:19:33;;;;;;;12.98;4.93;;;;;;;;;;4256286;33;20268;-56
2021/07/01 05:21:59;;;;;;;12.48;5.60;;;;;;;;;;4256254;33;20259;-55
2021/07/01 05:24:24;;;;;;;15.93;4.97;;;;;;;;;;4255067;33;20634;-56
2021/07/01 05:26:50;;;;;;;15.00;6.35;;;;;;;;;;4254857;33;20247;-56
2021/07/01 05:29:16;;;;;;;13.93;5.47;;;;;;;;;;4255447;33;20247;-56
2021/07/01 05:31:42;;;;;;;15.57;4.82;;;;;;;;;;4257797;33;20296;-56
2021/07/01 05:34:07;;;;;;;16.40;5.30;;;;;;;;;;4256316;33;20284;-56
2021/07/01 05:36:33;;;;;;;14.93;5.90;;;;;;;;;;4256256;33;20276;-56
2021/07/01 05:38:58;;;;;;;17.33;6.00;;;;;;;;;;4256515;33;20662;-56
2021/07/01 05:41:23;;;;;;;11.57;5.72;;;;;;;;;;4257341;33;20267;-56
2021/07/01 05:43:49;;;;;;;17.98;6.43;;;;;;;;;;4267448;33;20239;-56
2021/07/01 05:46:14;;;;;;;9.95;6.15;;;;;;;;;;4270152;33;20641;-56
2021/07/01 05:48:41;;;;;;;8.60;5.78;;;;;;;;;;4269482;33;20300;-56
2021/07/01 05:51:08;;;;;;;15.60;5.62;;;;;;;;;;4256898;33;20234;-56
2021/07/01 05:56:22;;;;;;;17.35;5.87;;;;;;;;;;4256433;33;20370;-57
2021/07/01 05:58:48;;;;;;;13.45;6.22;;;;;;;;;;4269572;33;20544;-57
2021/07/01 06:01:13;;;;;;;19.48;6.95;;;;;;;;;;4271634;33;20334;-56
2021/07/01 06:03:39;;;;;;;18.95;6.10;;;;;;;;;;4271002;33;20227;-57
2021/07/01 06:06:13;;;;;;;15.35;5.12;;;;;;;;;;4257017;33;20346;-56
2021/07/01 06:08:39;;;;;;;15.20;6.43;;;;;;;;;;4270237;33;20315;-56
2021/07/01 06:11:06;;;;;;;14.85;5.87;;;;;;;;;;4273856;33;20260;-57
2021/07/01 06:13:37;;;;;;;22.00;7.43;;;;;;;;;;4273723;33;20730;-57
2021/07/01 06:16:03;;;;;;;16.52;6.65;;;;;;;;;;4284650;33;20334;-56
2021/07/01 06:18:30;;;;;;;17.10;6.15;;;;;;;;;;4274156;33;20262;-56
2021/07/01 06:20:56;;;;;;;17.27;6.75;;;;;;;;;;4273755;33;20254;-56
2021/07/01 06:23:22;;;;;;;17.30;6.20;;;;;;;;;;4273646;33;20236;-57
2021/07/01 06:25:50;;;;;;;14.95;5.72;;;;;;;;;;4284309;33;20279;-56
2021/07/01 06:28:16;;;;;;;17.80;6.53;;;;;;;;;;4273467;33;20607;-56
2021/07/01 06:30:45;;;;;;;19.45;5.75;;;;;;;;;;4271867;33;20363;-58
2021/07/01 06:33:11;;;;;;;15.80;6.45;;;;;;;;;;4259473;33;20740;-57
2021/07/01 06:35:37;;;;;;;11.32;6.60;;;;;;;;;;4246463;33;20559;-56
2021/07/01 06:38:09;;;;;;;14.35;6.95;;;;;;;;;;4259262;33;20303;-56
2021/07/01 06:40:35;;;;;;;21.98;6.68;;;;;;;;;;4259460;33;20332;-57
2021/07/01 06:43:02;;;;;;;13.88;5.90;;;;;;;;;;4263394;33;20346;-57
2021/07/01 06:47:52;;;;;;;18.80;7.28;;;;;;;;;;4460398;32;20375;-56
2021/07/01 06:50:25;;;;;;;18.00;6.43;;;;;;;;;;4447427;32;20292;-57
2021/07/01 06:52:56;;;;;;;13.10;6.43;;;;;;;;;;4446804;32;20197;-56
2021/07/01 06:55:23;;;;;;;15.60;5.45;;;;;;;;;;4447508;32;20276;-56
2021/07/01 06:57:49;;;;;;;23.35;5.87;;;;;;;;;;4447164;32;20193;-55
2021/07/01 07:00:17;;;;;;;13.50;5.32;;;;;;;;;;4446681;32;20235;-55
2021/07/01 07:02:43;;;;;;;14.57;4.82;;;;;;;;;;4446829;32;20620;-57
2021/07/01 07:05:12;;;;;;;9.88;5.25;;;;;;;;;;4444000;32;20228;-55
2021/07/01 07:07:42;;;;;;;8.30;5.62;;;;;;;;;;4446564;32;20264;-57
2021/07/01 07:10:09;;;;;;;13.98;5.75;;;;;;;;;;4447036;32;20232;-56
2021/07/01 07:12:38;;;;;;;12.48;4.70;;;;;;;;;;4446531;32;20277;-57
2021/07/01 07:15:06;;;;;;;13.95;6.00;;;;;;;;;;4432520;32;20296;-56
2021/07/01 07:17:35;;;;;;;8.93;5.28;;;;;;;;;;4443548;32;20282;-57
2021/07/01 07:20:01;;;;;;;10.93;5.62;;;;;;;;;;4432553;32;20244;-56
2021/07/01 07:22:33;;;;;;;18.85;5.95;;;;;;;;;;4446457;32;20224;-56
2021/07/01 07:25:04;;;;;;;12.57;4.80;;;;;;;;;;4446796;32;20260;-57
2021/07/01 07:27:31;;;;;;;15.15;5.45;;;;;;;;;;4446048;32;20615;-56
2021/07/01 07:29:57;;;;;;;15.40;5.78;;;;;;;;;;4446577;32;20268;-56
2021/07/01 07:32:29;;;;;;;14.18;5.72;;;;;;;;;;4445995;32;20242;-56
2021/07/01 07:34:55;;;;;;;12.15;5.53;;;;;;;;;;4446351;32;20632;-57
2021/07/01 07:37:21;;;;;;;19.58;6.20;;;;;;;;;;4446511;32;20228;-57
2021/07/01 07:39:47;;;;;;;19.65;5.93;;;;;;;;;;4432052;32;20663;-57
2021/07/01 07:42:14;;;;;;;9.00;5.15;;;;;;;;;;4431857;32;20641;-56
2021/07/01 07:44:41;;;;;;;12.70;5.82;;;;;;;;;;4439570;32;20561;-56
2021/07/01 07:47:09;;;;;;;16.40;6.75;;;;;;;;;;4418101;32;20703;-55
2021/07/01 07:49:35;;;;;;;10.27;5.40;;;;;;;;;;4443310;32;20351;-56
2021/07/01 07:52:03;;;;;;;13.38;5.35;;;;;;;;;;4445494;32;20255;-55
2021/07/01 07:54:44;;;;;;;13.48;5.62;;;;;;;;;;4445900;32;20213;-55
2021/07/01 07:57:11;;;;;;;12.70;5.40;;;;;;;;;;4442931;32;20678;-56
2021/07/01 07:59:38;;;;;;;14.48;5.80;;;;;;;;;;4435254;32;20208;-56
2021/07/01 08:02:05;;;;;;;11.68;5.00;;;;;;;;;;4435768;32;20335;-56
2021/07/01 08:04:35;;;;;;;15.75;6.03;;;;;;;;;;4435131;32;20229;-56
2021/07/01 08:07:03;;;;;;;16.67;5.20;;;;;;;;;;4420293;32;20255;-56
2021/07/01 08:09:30;;;;;;;16.30;5.53;;;;;;;;;;4419082;32;20239;-55
2021/07/01 08:11:57;;;;;;;10.30;5.62;;;;;;;;;;4419821;32;20316;-56
2021/07/01 08:14:23;;;;;;;14.40;6.37;;;;;;;;;;4419229;32;20225;-56
2021/07/01 08:16:50;;;;;;;15.35;5.75;;;;;;;;;;4423014;32;20212;-56
2021/07/01 08:19:16;;;;;;;10.82;6.50;;;;;;;;;;4435101;32;20287;-55
2021/07/01 08:21:41;;;;;;;9.20;5.00;;;;;;;;;;4406797;32;20268;-57
2021/07/01 08:24:11;;;;;;;20.37;6.53;;;;;;;;;;4390438;32;20314;-57
2021/07/01 08:26:36;;;;;;;19.25;5.30;;;;;;;;;;4380095;32;204455;-55
2021/07/01 08:29:02;;;;;;;12.85;5.72;;;;;;;;;;4389425;32;20249;-56
2021/07/01 08:31:29;;;;;;;20.25;6.55;;;;;;;;;;4387990;32;20264;-57
2021/07/01 08:33:57;;;;;;;6.80;4.18;;;;;;;;;;4387586;32;20348;-56
2021/07/01 08:36:25;;;;;;;11.98;4.75;;;;;;;;;;4388886;32;20557;-56
2021/07/01 08:38:55;;;;;;;20.77;6.12;;;;;;;;;;4388594;32;20269;-56
2021/07/01 08:41:26;;;;;;;9.43;4.78;;;;;;;;;;4387193;32;20242;-57
2021/07/01 08:43:54;;;;;;;10.93;5.15;;;;;;;;;;4388863;32;20257;-55
2021/07/01 08:46:52;;;;;;;15.52;5.45;;;;;;;;;;4388422;32;20225;-56
2021/07/01 08:49:34;;;;;;;11.15;5.25;;;;;;;;;;4388947;32;20190;-56
2021/07/01 08:52:06;;;;;;;11.98;5.00;;;;;;;;;;4388480;32;20203;-56
2021/07/01 08:54:36;;;;;;;17.27;4.87;;;;;;;;;;4388564;32;20624;-56
2021/07/01 08:57:11;;;;;;;20.55;4.37;;;;;;;;;;4388540;32;20261;-57
2021/07/01 08:59:52;;;;;;;28.10;4.75;;;;;;;;;;4388810;32;20229;-55
2021/07/01 09:02:23;;;;;;;10.35;4.53;;;;;;;;;;4387459;32;20583;-55
2021/07/01 09:04:56;;;;;;;13.85;4.68;;;;;;;;;;4388832;32;20375;-55
2021/07/01 09:07:24;;;;;;;11.35;4.65;;;;;;;;;;4388326;32;20253;-55
2021/07/01 09:09:59;;;;;;;20.45;5.37;;;;;;;;;;4387722;32;20206;-55
2021/07/01 09:12:26;;;;;;;13.18;4.00;;;;;;;;;;4388100;32;20234;-55
2021/07/01 09:15:08;;;;;;;19.10;4.45;;;;;;;;;;4387565;32;20646;-56
2021/07/01 09:17:36;;;;;;;12.20;4.57;;;;;;;;;;4382402;32;20256;-56
2021/07/01 09:20:07;;;;;;;10.68;4.37;;;;;;;;;;4373196;32;20202;-56
2021/07/01 09:22:32;;;;;;;10.18;3.65;;;;;;;;;;4372772;32;20423;-56
2021/07/01 09:24:58;;;;;;;16.10;4.70;;;;;;;;;;4373121;32;20660;-57
2021/07/01 09:27:26;;;;;;;14.25;3.90;;;;;;;;;;4372613;32;20218;-57
2021/07/01 09:29:53;;;;;;;14.27;3.78;;;;;;;;;;4371449;32;20578;-57
2021/07/01 09:32:20;;;;;;;14.85;4.53;;;;;;;;;;4386626;32;20298;-56
2021/07/01 09:34:49;;;;;;;14.87;4.53;;;;;;;;;;4387863;32;20751;-56
2021/07/01 09:37:15;;;;;;;23.87;4.57;;;;;;;;;;4388010;32;20248;-56
2021/07/01 09:39:43;;;;;;;17.08;5.03;;;;;;;;;;4387751;32;20682;-57
2021/07/01 09:42:09;;;;;;;10.77;3.87;;;;;;;;;;4372974;32;20222;-57
2021/07/01 09:44:37;;;;;;;12.60;3.92;;;;;;;;;;4372802;32;20297;-56
2021/07/01 09:47:07;;;;;;;15.00;4.12;;;;;;;;;;4370962;32;20261;-57
2021/07/01 09:49:35;;;;;;;10.25;3.67;;;;;;;;;;4372783;32;20325;-57
2021/07/01 09:52:06;;;;;;;21.73;5.25;;;;;;;;;;4372795;32;20760;-57
2021/07/01 09:54:33;;;;;;;11.30;4.75;;;;;;;;;;4372642;32;20203;-57
2021/07/01 09:57:05;;;;;;;24.08;4.85;;;;;;;;;;4372764;32;20666;-57
2021/07/01 09:59:42;;;;;;;10.77;4.35;;;;;;;;;;4372868;32;20276;-57
2021/07/01 10:02:13;;;;;;;13.65;3.58;;;;;;;;;;4371621;32;20229;-56
2021/07/01 10:04:40;;;;;;;12.20;4.15;;;;;;;;;;4372922;32;20276;-56
2021/07/01 10:07:09;;;;;;;20.40;3.95;;;;;;;;;;4372397;32;20411;-56
2021/07/01 10:09:35;;;;;;;12.43;4.05;;;;;;;;;;4372312;32;20747;-56
2021/07/01 10:12:01;;;;;;;22.70;4.82;;;;;;;;;;4386435;32;20214;-56
2021/07/01 10:14:38;;;;;;;16.58;3.40;;;;;;;;;;4387063;32;20206;-57
2021/07/01 10:17:08;;;;;;;19.83;4.65;;;;;;;;;;4385262;32;20328;-57
2021/07/01 10:19:34;;;;;;;15.55;4.97;;;;;;;;;;4372314;32;20363;-57
2021/07/01 10:22:05;;;;;;;24.40;4.00;;;;;;;;;;4371960;32;20218;-57
2021/07/01 10:24:33;;;;;;;20.98;4.75;;;;;;;;;;4372159;32;20218;-56
2021/07/01 10:26:59;;;;;;;11.82;3.85;;;;;;;;;;4371744;32;20214;-56
2021/07/01 10:29:35;;;;;;;15.52;3.83;;;;;;;;;;4372159;32;20234;-56
2021/07/01 10:32:05;;;;;;;18.65;5.18;;;;;;;;;;4384491;32;20240;-57
2021/07/01 10:34:31;;;;;;;12.50;3.65;;;;;;;;;;4387287;32;20718;-56
2021/07/01 10:37:19;;;;;;;13.43;4.72;;;;;;;;;;4387265;32;20218;-56
2021/07/01 10:39:46;;;;;;;21.17;4.35;;;;;;;;;;4385871;32;20245;-56
2021/07/01 10:42:13;;;;;;;14.07;3.92;;;;;;;;;;4387065;32;20210;-57
2021/07/01 10:44:39;;;;;;;10.10;4.30;;;;;;;;;;4387048;32;20227;-56
2021/07/01 10:47:31;;;;;;;12.75;4.12;;;;;;;;;;4387155;32;20249;-56
2021/07/01 10:49:58;;;;;;;9.93;4.18;;;;;;;;;;4387422;32;20206;-56
2021/07/01 10:52:38;;;;;;;17.58;4.90;;;;;;;;;;4387127;32;20254;-56
2021/07/01 10:55:04;;;;;;;18.20;4.90;;;;;;;;;;4387257;32;20186;-57
2021/07/01 10:57:30;;;;;;;15.90;4.47;;;;;;;;;;4387097;32;20278;-56
2021/07/01 10:59:58;;;;;;;15.52;4.05;;;;;;;;;;4387391;32;20268;-57
2021/07/01 11:02:23;;;;;;;16.20;5.35;;;;;;;;;;4386875;32;20248;-56
2021/07/01 11:04:51;;;;;;;16.90;4.40;;;;;;;;;;4387125;32;20279;-56
2021/07/01 11:07:19;;;;;;;18.83;5.30;;;;;;;;;;4377147;32;20234;-57
2021/07/01 11:09:47;;;;;;;12.75;4.50;;;;;;;;;;4372040;32;20225;-57
2021/07/01 11:12:12;;;;;;;14.52;5.05;;;;;;;;;;4371760;32;20355;-57
2021/07/01 11:14:44;;;;;;;20.77;5.15;;;;;;;;;;4371354;32;20214;-57
2021/07/01 11:17:10;;;;;;;16.35;4.50;;;;;;;;;;4371825;32;20213;-57
2021/07/01 11:19:41;;;;;;;10.63;4.40;;;;;;;;;;4371548;32;20366;-57
2021/07/01 11:22:07;;;;;;;15.15;4.00;;;;;;;;;;4371667;32;20327;-57
2021/07/01 11:24:37;;;;;;;17.98;5.05;;;;;;;;;;4376246;32;20256;-57
2021/07/01 11:27:03;;;;;;;8.93;4.72;;;;;;;;;;4386953;32;20586;-58
2021/07/01 11:29:38;;;;;;;18.25;5.57;;;;;;;;;;4385655;32;20241;-58
2021/07/01 11:32:21;;;;;;;13.18;4.35;;;;;;;;;;4386612;32;20299;-57
2021/07/01 11:34:48;;;;;;;17.87;4.45;;;;;;;;;;4390042;32;20237;-57
2021/07/01 11:37:16;;;;;;;11.45;4.12;;;;;;;;;;4389652;32;20558;-58
2021/07/01 11:39:42;;;;;;;18.37;5.37;;;;;;;;;;4389198;32;20214;-57
2021/07/01 11:42:07;;;;;;;16.37;4.65;;;;;;;;;;4389307;32;20238;-56
2021/07/01 11:44:34;;;;;;;27.10;4.82;;;;;;;;;;4389444;32;20224;-56
2021/07/01 11:47:03;;;;;;;10.57;4.82;;;;;;;;;;4389299;32;20287;-57
2021/07/01 11:49:30;;;;;;;12.75;4.18;;;;;;;;;;4389350;32;20252;-57
2021/07/01 11:51:56;;;;;;;18.27;5.50;;;;;;;;;;4389239;32;20253;-57
2021/07/01 11:54:22;;;;;;;10.13;4.18;;;;;;;;;;4389508;32;20554;-57
2021/07/01 11:56:54;;;;;;;10.10;3.75;;;;;;;;;;4389259;32;20237;-57
2021/07/01 11:59:30;;;;;;;19.30;3.80;;;;;;;;;;4389167;32;20279;-57
2021/07/01 12:01:58;;;;;;;26.85;5.50;;;;;;;;;;4389997;32;20206;-57
2021/07/01 12:04:35;;;;;;;22.30;6.37;;;;;;;;;;4387938;32;20226;-58
2021/07/01 12:07:15;;;;;;;10.68;4.70;;;;;;;;;;4388971;32;20569;-57
2021/07/01 12:09:42;;;;;;;13.18;4.60;;;;;;;;;;4388875;32;20206;-56
2021/07/01 12:12:13;;;;;;;22.42;5.12;;;;;;;;;;4389111;32;20269;-57
2021/07/01 12:14:45;;;;;;;26.08;5.87;;;;;;;;;;4388484;32;20222;-57
2021/07/01 12:17:11;;;;;;;10.90;3.90;;;;;;;;;;4384968;32;20303;-57
2021/07/01 12:19:45;;;;;;;15.20;4.35;;;;;;;;;;4374206;32;20602;-56
2021/07/01 12:22:43;;;;;;;15.40;4.53;;;;;;;;;;4386287;32;20251;-57
2021/07/01 12:25:21;;;;;;;20.55;5.75;;;;;;;;;;4387549;32;20340;-57
2021/07/01 12:28:07;;;;;;;15.35;5.07;;;;;;;;;;4387440;32;20221;-56
2021/07/01 12:30:56;;;;;;;20.67;5.28;;;;;;;;;;4388688;32;20242;-58
2021/07/01 12:33:43;;;;;;;18.95;5.35;;;;;;;;;;4388640;32;20261;-58
2021/07/01 12:36:20;;;;;;;18.15;5.05;;;;;;;;;;4387139;32;20226;-57
2021/07/01 12:41:29;;;;;;;17.92;4.05;;;;;;;;;;4388187;32;20217;-57
2021/07/01 12:43:57;;;;;;;19.33;5.28;;;;;;;;;;4388508;32;20319;-57
2021/07/01 12:46:41;;;;;;;26.87;4.72;;;;;;;;;;4388485;32;20299;-57
2021/07/01 12:49:29;;;;;;;13.13;4.05;;;;;;;;;;4387234;32;20292;-57
2021/07/01 12:51:58;;;;;;;18.40;5.55;;;;;;;;;;4380856;32;20253;-57
2021/07/01 12:54:24;;;;;;;13.80;4.43;;;;;;;;;;4388524;32;20226;-57
2021/07/01 12:57:10;;;;;;;15.63;4.03;;;;;;;;;;4388837;32;20244;-57
2021/07/01 12:59:36;;;;;;;7.72;2.72;;;;;;;;;;4381388;32;20289;-55
2021/07/01 13:02:07;;;;;;;13.82;2.75;;;;;;;;;;4374076;32;20248;-57
2021/07/01 13:04:35;;;;;;;8.50;2.80;;;;;;;;;;4373651;32;20198;-57
2021/07/01 13:07:01;;;;;;;22.13;4.28;;;;;;;;;;4374627;32;20261;-57
2021/07/01 13:09:27;;;;;;;9.00;2.90;;;;;;;;;;4372954;32;20259;-57
2021/07/01 13:11:53;;;;;;;9.10;3.08;;;;;;;;;;4377710;32;20421;-58
2021/07/01 13:14:22;;;;;;;10.45;2.87;;;;;;;;;;4377253;32;20253;-57
2021/07/01 13:17:07;;;;;;;9.07;2.78;;;;;;;;;;4371455;32;20304;-58
2021/07/01 13:19:36;;;;;;;8.82;3.85;;;;;;;;;;4376446;32;20221;-58
2021/07/01 13:22:12;;;;;;;10.63;3.20;;;;;;;;;;4385776;32;20283;-58
2021/07/01 13:25:00;;;;;;;10.27;3.40;;;;;;;;;;4386045;32;20210;-57
2021/07/01 13:27:32;;;;;;;13.18;4.12;;;;;;;;;;4385211;32;20377;-57
2021/07/01 13:29:58;;;;;;;13.00;4.93;;;;;;;;;;4372811;32;20202;-57
2021/07/01 13:32:25;;;;;;;10.95;3.92;;;;;;;;;;4387011;32;20384;-57
2021/07/01 13:34:51;;;;;;;16.77;4.53;;;;;;;;;;4388072;32;20289;-57
2021/07/01 13:37:24;;;;;;;9.95;3.87;;;;;;;;;;4388170;32;20573;-58
2021/07/01 13:39:51;;;;;;;18.70;4.20;;;;;;;;;;4388045;32;20249;-56
2021/07/01 13:42:31;;;;;;;14.95;4.45;;;;;;;;;;4387141;32;20221;-58
2021/07/01 13:45:05;;;;;;;22.52;4.30;;;;;;;;;;4383788;32;20241;-58
2021/07/01 13:47:39;;;;;;;13.13;4.20;;;;;;;;;;4371692;32;20250;-57
2021/07/01 13:50:05;;;;;;;14.15;3.70;;;;;;;;;;4373568;32;20610;-57
2021/07/01 13:52:31;;;;;;;13.85;5.15;;;;;;;;;;4373153;32;20268;-57
2021/07/01 13:54:56;;;;;;;19.17;5.05;;;;;;;;;;4371416;32;20874;-58
2021/07/01 13:57:29;;;;;;;11.38;4.25;;;;;;;;;;4359429;32;20590;-58
2021/07/01 13:59:59;;;;;;;15.90;3.95;;;;;;;;;;4373399;32;20198;-57
2021/07/01 14:02:26;;;;;;;21.67;4.45;;;;;;;;;;4373026;32;20256;-57
2021/07/01 14:04:53;;;;;;;13.32;3.85;;;;;;;;;;4373179;32;20265;-58
2021/07/01 14:07:29;;;;;;;20.37;4.57;;;;;;;;;;4372847;32;20230;-58
2021/07/01 14:10:06;;;;;;;8.88;3.08;;;;;;;;;;4373257;32;20189;-57
2021/07/01 14:12:32;;;;;;;16.25;3.72;;;;;;;;;;4372734;32;20241;-56
2021/07/01 14:14:58;;;;;;;12.80;3.58;;;;;;;;;;4382589;32;20293;-57
2021/07/01 14:17:23;;;;;;;15.57;4.37;;;;;;;;;;4387975;32;20240;-57
2021/07/01 14:19:49;;;;;;;17.55;3.85;;;;;;;;;;4379522;32;20280;-56
2021/07/01 14:22:15;;;;;;;15.35;4.20;;;;;;;;;;4373122;32;20285;-57
2021/07/01 14:24:40;;;;;;;13.00;4.50;;;;;;;;;;4373188;32;20733;-57
2021/07/01 14:27:07;;;;;;;8.95;3.62;;;;;;;;;;4373363;32;20256;-57
2021/07/01 14:29:42;;;;;;;12.05;4.62;;;;;;;;;;4373235;32;20602;-57
2021/07/01 14:32:08;;;;;;;26.70;3.97;;;;;;;;;;4385903;32;20222;-56
2021/07/01 14:34:44;;;;;;;14.77;3.83;;;;;;;;;;4387926;32;20603;-57
2021/07/01 14:37:20;;;;;;;7.97;2.28;;;;;;;;;;4386928;32;20225;-57
2021/07/01 14:40:08;;;;;;;17.40;4.25;;;;;;;;;;4388006;32;20263;-58
2021/07/01 14:42:36;;;;;;;14.00;3.90;;;;;;;;;;4387628;32;20246;-57
2021/07/01 14:45:16;;;;;;;8.55;3.60;;;;;;;;;;4388156;32;20237;-57